sensor_id;sensor_type;location;lat;lon;timestamp;pressure;altitude;pressure_sealevel;temperature;humidity
47530;BME280;33272;51.922;7.730;2023-02-03T00:00:45;144643.09;;;8.64;100.00
47530;BME280;33272;51.922;7.730;2023-02-03T00:03:13;144636.75;;;8.62;100.00
47530;BME280;33272;51.922;7.730;2023-02-03T00:05:41;144641.78;;;8.64;100.00
47530;BME280;33272;51.922;7.730;2023-02-03T00:08:08;144668.38;;;8.74;100.00
47530;BME280;33272;51.922;7.730;2023-02-03T00:10:37;144636.75;;;8.62;100.00
47530;BME280;33272;51.922;7.730;2023-02-03T00:13:05;144648.13;;;8.66;100.00
47530;BME280;33272;51.922;7.730;2023-02-03T00:15:33;144620.31;;;8.55;100.00
47530;BME280;33272;51.922;7.730;2023-02-03T00:18:00;144654.47;;;8.69;100.00
47530;BME280;33272;51.922;7.730;2023-02-03T00:20:28;144654.47;;;8.69;100.00
47530;BME280;33272;51.922;7.730;2023-02-03T00:23:03;144653.19;;;8.68;100.00
47530;BME280;33272;51.922;7.730;2023-02-03T00:25:30;144673.47;;;8.76;100.00
47530;BME280;33272;51.922;7.730;2023-02-03T00:27:57;144687.34;;;8.82;100.00
47530;BME280;33272;51.922;7.730;2023-02-03T00:30:25;144691.16;;;8.84;100.00
47530;BME280;33272;51.922;7.730;2023-02-03T00:32:52;144659.53;;;8.71;100.00
47530;BME280;33272;51.922;7.730;2023-02-03T00:35:19;144665.88;;;8.73;100.00
47530;BME280;33272;51.922;7.730;2023-02-03T00:37:52;144653.19;;;8.68;100.00
47530;BME280;33272;51.922;7.730;2023-02-03T00:40:20;144662.06;;;8.72;100.00
47530;BME280;33272;51.922;7.730;2023-02-03T00:42:48;144677.25;;;8.78;100.00
47530;BME280;33272;51.922;7.730;2023-02-03T00:45:16;144667.13;;;8.74;100.00
47530;BME280;33272;51.922;7.730;2023-02-03T00:47:43;144683.56;;;8.80;100.00
47530;BME280;33272;51.922;7.730;2023-02-03T00:50:10;144668.38;;;8.74;100.00
47530;BME280;33272;51.922;7.730;2023-02-03T00:52:38;144669.66;;;8.75;100.00
47530;BME280;33272;51.922;7.730;2023-02-03T00:55:07;144696.19;;;8.86;100.00
47530;BME280;33272;51.922;7.730;2023-02-03T00:57:34;144688.59;;;8.82;100.00
47530;BME280;33272;51.922;7.730;2023-02-03T01:00:02;144698.78;;;8.87;100.00
47530;BME280;33272;51.922;7.730;2023-02-03T01:02:29;144702.53;;;8.88;100.00
47530;BME280;33272;51.922;7.730;2023-02-03T01:04:56;144711.41;;;8.92;100.00
47530;BME280;33272;51.922;7.730;2023-02-03T01:07:23;144697.50;;;8.86;100.00
47530;BME280;33272;51.922;7.730;2023-02-03T01:09:50;144724.06;;;8.97;100.00
47530;BME280;33272;51.922;7.730;2023-02-03T01:12:18;144722.81;;;8.96;100.00
47530;BME280;33272;51.922;7.730;2023-02-03T01:14:45;144715.22;;;8.93;100.00
47530;BME280;33272;51.922;7.730;2023-02-03T01:17:12;144729.16;;;8.99;100.00
47530;BME280;33272;51.922;7.730;2023-02-03T01:19:39;144716.47;;;8.94;100.00
47530;BME280;33272;51.922;7.730;2023-02-03T01:22:06;144689.91;;;8.83;100.00
47530;BME280;33272;51.922;7.730;2023-02-03T01:24:33;144682.31;;;8.80;100.00
47530;BME280;33272;51.922;7.730;2023-02-03T01:27:00;144694.94;;;8.85;100.00
47530;BME280;33272;51.922;7.730;2023-02-03T01:29:28;144687.34;;;8.82;100.00
47530;BME280;33272;51.922;7.730;2023-02-03T01:31:55;144692.44;;;8.84;100.00
47530;BME280;33272;51.922;7.730;2023-02-03T01:34:22;144698.78;;;8.87;100.00
47530;BME280;33272;51.922;7.730;2023-02-03T01:36:49;144691.16;;;8.84;100.00
47530;BME280;33272;51.922;7.730;2023-02-03T01:39:16;144710.13;;;8.91;100.00
47530;BME280;33272;51.922;7.730;2023-02-03T01:41:43;144700.03;;;8.87;100.00
47530;BME280;33272;51.922;7.730;2023-02-03T01:44:42;144697.50;;;8.86;100.00
47530;BME280;33272;51.922;7.730;2023-02-03T01:47:24;144716.47;;;8.94;100.00
47530;BME280;33272;51.922;7.730;2023-02-03T01:50:02;144720.28;;;8.95;100.00
47530;BME280;33272;51.922;7.730;2023-02-03T01:52:31;144719.00;;;8.95;100.00
47530;BME280;33272;51.922;7.730;2023-02-03T01:55:01;144735.44;;;9.01;100.00
47530;BME280;33272;51.922;7.730;2023-02-03T01:57:35;144724.06;;;8.97;100.00
47530;BME280;33272;51.922;7.730;2023-02-03T02:00:07;144743.03;;;9.04;100.00
47530;BME280;33272;51.922;7.730;2023-02-03T02:02:34;144722.81;;;8.96;100.00
47530;BME280;33272;51.922;7.730;2023-02-03T02:05:06;144721.56;;;8.96;100.00
47530;BME280;33272;51.922;7.730;2023-02-03T02:07:36;144706.34;;;8.90;100.00
47530;BME280;33272;51.922;7.730;2023-02-03T02:10:05;144687.34;;;8.82;100.00
47530;BME280;33272;51.922;7.730;2023-02-03T02:12:33;144694.94;;;8.85;100.00
47530;BME280;33272;51.922;7.730;2023-02-03T02:15:00;144707.63;;;8.90;100.00
47530;BME280;33272;51.922;7.730;2023-02-03T02:18:02;144677.25;;;8.78;100.00
47530;BME280;33272;51.922;7.730;2023-02-03T02:23:47;144712.69;;;8.92;100.00
47530;BME280;33272;51.922;7.730;2023-02-03T02:26:59;144673.47;;;8.76;100.00
47530;BME280;33272;51.922;7.730;2023-02-03T02:29:59;144651.94;;;8.68;100.00
47530;BME280;33272;51.922;7.730;2023-02-03T02:33:10;144663.31;;;8.72;100.00
47530;BME280;33272;51.922;7.730;2023-02-03T02:35:51;144689.91;;;8.83;100.00
47530;BME280;33272;51.922;7.730;2023-02-03T02:38:33;144679.75;;;8.79;100.00
47530;BME280;33272;51.922;7.730;2023-02-03T02:41:09;144700.03;;;8.87;100.00
47530;BME280;33272;51.922;7.730;2023-02-03T02:43:41;144700.03;;;8.87;100.00
47530;BME280;33272;51.922;7.730;2023-02-03T02:46:12;144702.53;;;8.88;100.00
47530;BME280;33272;51.922;7.730;2023-02-03T02:48:45;144725.31;;;8.97;100.00
47530;BME280;33272;51.922;7.730;2023-02-03T02:51:14;144719.00;;;8.95;100.00
47530;BME280;33272;51.922;7.730;2023-02-03T02:53:48;144716.47;;;8.94;100.00
47530;BME280;33272;51.922;7.730;2023-02-03T02:56:16;144713.97;;;8.93;100.00
47530;BME280;33272;51.922;7.730;2023-02-03T02:58:48;144711.41;;;8.92;100.00
47530;BME280;33272;51.922;7.730;2023-02-03T03:01:16;144716.47;;;8.94;100.00
47530;BME280;33272;51.922;7.730;2023-02-03T03:03:45;144712.69;;;8.92;100.00
47530;BME280;33272;51.922;7.730;2023-02-03T03:06:17;144702.53;;;8.88;100.00
47530;BME280;33272;51.922;7.730;2023-02-03T03:08:50;144697.50;;;8.86;100.00
47530;BME280;33272;51.922;7.730;2023-02-03T03:11:20;144713.97;;;8.93;100.00
47530;BME280;33272;51.922;7.730;2023-02-03T03:13:51;144681.00;;;8.79;100.00
47530;BME280;33272;51.922;7.730;2023-02-03T03:16:23;144707.63;;;8.90;100.00
47530;BME280;33272;51.922;7.730;2023-02-03T03:18:55;144694.94;;;8.85;100.00
47530;BME280;33272;51.922;7.730;2023-02-03T03:21:28;144702.53;;;8.88;100.00
47530;BME280;33272;51.922;7.730;2023-02-03T03:24:00;144710.13;;;8.91;100.00
47530;BME280;33272;51.922;7.730;2023-02-03T03:26:34;144659.53;;;8.71;100.00
47530;BME280;33272;51.922;7.730;2023-02-03T03:29:09;144715.22;;;8.93;100.00
47530;BME280;33272;51.922;7.730;2023-02-03T03:31:38;144670.91;;;8.75;100.00
47530;BME280;33272;51.922;7.730;2023-02-03T03:34:08;144692.44;;;8.84;100.00
47530;BME280;33272;51.922;7.730;2023-02-03T03:36:41;144694.94;;;8.85;100.00
47530;BME280;33272;51.922;7.730;2023-02-03T03:39:15;144722.81;;;8.96;100.00
47530;BME280;33272;51.922;7.730;2023-02-03T03:41:55;144707.63;;;8.90;100.00
47530;BME280;33272;51.922;7.730;2023-02-03T03:44:28;144700.03;;;8.87;100.00
47530;BME280;33272;51.922;7.730;2023-02-03T03:47:05;144701.28;;;8.88;100.00
47530;BME280;33272;51.922;7.730;2023-02-03T03:49:38;144691.16;;;8.84;100.00
47530;BME280;33272;51.922;7.730;2023-02-03T03:52:08;144710.13;;;8.91;100.00
47530;BME280;33272;51.922;7.730;2023-02-03T03:54:37;144725.31;;;8.97;100.00
47530;BME280;33272;51.922;7.730;2023-02-03T03:57:12;144692.44;;;8.84;100.00
47530;BME280;33272;51.922;7.730;2023-02-03T03:59:46;144730.41;;;8.99;100.00
47530;BME280;33272;51.922;7.730;2023-02-03T04:02:15;144708.88;;;8.91;100.00
47530;BME280;33272;51.922;7.730;2023-02-03T04:04:45;144701.28;;;8.88;100.00
47530;BME280;33272;51.922;7.730;2023-02-03T04:07:14;144677.25;;;8.78;100.00
47530;BME280;33272;51.922;7.730;2023-02-03T04:09:41;144701.28;;;8.88;100.00
47530;BME280;33272;51.922;7.730;2023-02-03T04:12:22;144706.34;;;8.90;100.00
47530;BME280;33272;51.922;7.730;2023-02-03T04:14:49;144681.00;;;8.79;100.00
47530;BME280;33272;51.922;7.730;2023-02-03T04:17:16;144712.69;;;8.92;100.00
47530;BME280;33272;51.922;7.730;2023-02-03T04:19:46;144713.97;;;8.93;100.00
47530;BME280;33272;51.922;7.730;2023-02-03T04:22:13;144708.88;;;8.91;100.00
47530;BME280;33272;51.922;7.730;2023-02-03T04:24:40;144696.19;;;8.86;100.00
47530;BME280;33272;51.922;7.730;2023-02-03T04:27:07;144703.78;;;8.89;100.00
47530;BME280;33272;51.922;7.730;2023-02-03T04:29:34;144711.41;;;8.92;100.00
47530;BME280;33272;51.922;7.730;2023-02-03T04:32:01;144719.00;;;8.95;100.00
47530;BME280;33272;51.922;7.730;2023-02-03T04:34:28;144720.28;;;8.95;100.00
47530;BME280;33272;51.922;7.730;2023-02-03T04:36:56;144719.00;;;8.95;100.00
47530;BME280;33272;51.922;7.730;2023-02-03T04:39:23;144721.56;;;8.96;100.00
47530;BME280;33272;51.922;7.730;2023-02-03T04:41:50;144735.44;;;9.01;100.00
47530;BME280;33272;51.922;7.730;2023-02-03T04:44:17;144749.38;;;9.07;100.00
47530;BME280;33272;51.922;7.730;2023-02-03T04:46:44;144717.72;;;8.94;100.00
47530;BME280;33272;51.922;7.730;2023-02-03T04:49:11;144702.53;;;8.88;100.00
47530;BME280;33272;51.922;7.730;2023-02-03T04:51:38;144722.81;;;8.96;100.00
47530;BME280;33272;51.922;7.730;2023-02-03T04:54:06;144710.13;;;8.91;100.00
47530;BME280;33272;51.922;7.730;2023-02-03T04:56:33;144711.41;;;8.92;100.00
47530;BME280;33272;51.922;7.730;2023-02-03T04:59:00;144688.59;;;8.82;100.00
47530;BME280;33272;51.922;7.730;2023-02-03T05:01:27;144715.22;;;8.93;100.00
47530;BME280;33272;51.922;7.730;2023-02-03T05:03:54;144710.13;;;8.91;100.00
47530;BME280;33272;51.922;7.730;2023-02-03T05:06:22;144703.78;;;8.89;100.00
47530;BME280;33272;51.922;7.730;2023-02-03T05:08:50;144698.78;;;8.87;100.00
47530;BME280;33272;51.922;7.730;2023-02-03T05:11:19;144706.34;;;8.90;100.00
47530;BME280;33272;51.922;7.730;2023-02-03T05:13:46;144736.75;;;9.02;100.00
47530;BME280;33272;51.922;7.730;2023-02-03T05:16:13;144707.63;;;8.90;100.00
47530;BME280;33272;51.922;7.730;2023-02-03T05:18:40;144705.09;;;8.89;100.00
47530;BME280;33272;51.922;7.730;2023-02-03T05:21:07;144715.22;;;8.93;100.00
47530;BME280;33272;51.922;7.730;2023-02-03T05:23:34;144672.16;;;8.76;100.00
47530;BME280;33272;51.922;7.730;2023-02-03T05:26:01;144708.88;;;8.91;100.00
47530;BME280;33272;51.922;7.730;2023-02-03T05:28:30;144729.16;;;8.99;100.00
47530;BME280;33272;51.922;7.730;2023-02-03T05:30:57;144711.41;;;8.92;100.00
47530;BME280;33272;51.922;7.730;2023-02-03T05:33:24;144710.13;;;8.91;100.00
47530;BME280;33272;51.922;7.730;2023-02-03T05:35:51;144710.13;;;8.91;100.00
47530;BME280;33272;51.922;7.730;2023-02-03T05:38:18;144713.97;;;8.93;100.00
47530;BME280;33272;51.922;7.730;2023-02-03T05:40:47;144701.28;;;8.88;100.00
47530;BME280;33272;51.922;7.730;2023-02-03T05:43:33;144703.78;;;8.89;100.00
47530;BME280;33272;51.922;7.730;2023-02-03T05:46:01;144712.69;;;8.92;100.00
47530;BME280;33272;51.922;7.730;2023-02-03T05:48:28;144696.19;;;8.86;100.00
47530;BME280;33272;51.922;7.730;2023-02-03T05:50:55;144715.22;;;8.93;100.00
47530;BME280;33272;51.922;7.730;2023-02-03T05:53:22;144703.78;;;8.89;100.00
47530;BME280;33272;51.922;7.730;2023-02-03T05:55:49;144713.97;;;8.93;100.00
47530;BME280;33272;51.922;7.730;2023-02-03T05:58:16;144686.09;;;8.81;100.00
47530;BME280;33272;51.922;7.730;2023-02-03T06:00:45;144732.91;;;9.00;100.00
47530;BME280;33272;51.922;7.730;2023-02-03T06:03:12;144750.63;;;9.08;100.00
47530;BME280;33272;51.922;7.730;2023-02-03T06:05:39;144735.44;;;9.01;100.00
47530;BME280;33272;51.922;7.730;2023-02-03T06:08:08;144736.75;;;9.02;100.00
47530;BME280;33272;51.922;7.730;2023-02-03T06:10:35;144749.38;;;9.07;100.00
47530;BME280;33272;51.922;7.730;2023-02-03T06:13:08;144750.63;;;9.08;100.00
47530;BME280;33272;51.922;7.730;2023-02-03T06:15:36;144734.19;;;9.01;100.00
47530;BME280;33272;51.922;7.730;2023-02-03T06:18:04;144706.34;;;8.90;100.00
47530;BME280;33272;51.922;7.730;2023-02-03T06:20:31;144726.59;;;8.98;100.00
47530;BME280;33272;51.922;7.730;2023-02-03T06:22:59;144702.53;;;8.88;100.00
47530;BME280;33272;51.922;7.730;2023-02-03T06:25:26;144734.19;;;9.01;100.00
47530;BME280;33272;51.922;7.730;2023-02-03T06:27:53;144750.63;;;9.08;100.00
47530;BME280;33272;51.922;7.730;2023-02-03T06:30:20;144745.59;;;9.05;100.00
47530;BME280;33272;51.922;7.730;2023-02-03T06:32:49;144774.69;;;9.17;100.00
47530;BME280;33272;51.922;7.730;2023-02-03T06:35:17;144744.34;;;9.05;100.00
47530;BME280;33272;51.922;7.730;2023-02-03T06:37:44;144754.44;;;9.09;100.00
47530;BME280;33272;51.922;7.730;2023-02-03T06:40:12;144764.56;;;9.13;100.00
47530;BME280;33272;51.922;7.730;2023-02-03T06:42:39;144774.69;;;9.17;100.00
47530;BME280;33272;51.922;7.730;2023-02-03T06:45:08;144770.91;;;9.16;100.00
47530;BME280;33272;51.922;7.730;2023-02-03T06:47:38;144772.16;;;9.16;100.00
47530;BME280;33272;51.922;7.730;2023-02-03T06:50:06;144789.88;;;9.23;100.00
47530;BME280;33272;51.922;7.730;2023-02-03T06:52:35;144789.88;;;9.23;100.00
47530;BME280;33272;51.922;7.730;2023-02-03T06:55:02;144791.19;;;9.24;100.00
47530;BME280;33272;51.922;7.730;2023-02-03T06:57:29;144798.78;;;9.27;100.00
47530;BME280;33272;51.922;7.730;2023-02-03T06:59:56;144777.25;;;9.18;100.00
47530;BME280;33272;51.922;7.730;2023-02-03T07:02:23;144805.06;;;9.29;100.00
47530;BME280;33272;51.922;7.730;2023-02-03T07:04:50;144798.78;;;9.27;100.00
47530;BME280;33272;51.922;7.730;2023-02-03T07:07:17;144781.00;;;9.20;100.00
47530;BME280;33272;51.922;7.730;2023-02-03T07:09:45;144811.41;;;9.32;100.00
47530;BME280;33272;51.922;7.730;2023-02-03T07:12:12;144802.53;;;9.28;100.00
47530;BME280;33272;51.922;7.730;2023-02-03T07:14:39;144811.41;;;9.32;100.00
47530;BME280;33272;51.922;7.730;2023-02-03T07:17:06;144808.88;;;9.31;100.00
47530;BME280;33272;51.922;7.730;2023-02-03T07:19:33;144817.75;;;9.35;100.00
47530;BME280;33272;51.922;7.730;2023-02-03T07:22:00;144835.47;;;9.42;100.00
47530;BME280;33272;51.922;7.730;2023-02-03T07:24:27;144819.00;;;9.35;100.00
47530;BME280;33272;51.922;7.730;2023-02-03T07:26:55;144862.06;;;9.52;100.00
47530;BME280;33272;51.922;7.730;2023-02-03T07:29:22;144865.84;;;9.54;100.00
47530;BME280;33272;51.922;7.730;2023-02-03T07:31:49;144862.06;;;9.52;100.00
47530;BME280;33272;51.922;7.730;2023-02-03T07:34:16;144858.25;;;9.51;100.00
47530;BME280;33272;51.922;7.730;2023-02-03T07:36:43;144841.78;;;9.44;100.00
47530;BME280;33272;51.922;7.730;2023-02-03T07:39:10;144868.38;;;9.55;100.00
47530;BME280;33272;51.922;7.730;2023-02-03T07:41:37;144851.91;;;9.48;100.00
47530;BME280;33272;51.922;7.730;2023-02-03T07:44:06;144872.19;;;9.57;100.00
47530;BME280;33272;51.922;7.730;2023-02-03T07:46:34;144870.94;;;9.56;100.00
47530;BME280;33272;51.922;7.730;2023-02-03T07:49:04;144896.25;;;9.66;100.00
47530;BME280;33272;51.922;7.730;2023-02-03T07:51:31;144864.59;;;9.54;100.00
47530;BME280;33272;51.922;7.730;2023-02-03T07:53:58;144877.28;;;9.59;100.00
47530;BME280;33272;51.922;7.730;2023-02-03T07:56:25;144854.47;;;9.49;100.00
47530;BME280;33272;51.922;7.730;2023-02-03T07:58:52;144849.41;;;9.47;100.00
47530;BME280;33272;51.922;7.730;2023-02-03T08:01:20;144858.25;;;9.51;100.00
47530;BME280;33272;51.922;7.730;2023-02-03T08:03:47;144857.00;;;9.50;100.00
47530;BME280;33272;51.922;7.730;2023-02-03T08:06:15;144864.59;;;9.54;100.00
47530;BME280;33272;51.922;7.730;2023-02-03T08:08:42;144875.97;;;9.58;100.00
47530;BME280;33272;51.922;7.730;2023-02-03T08:11:10;144884.88;;;9.62;100.00
47530;BME280;33272;51.922;7.730;2023-02-03T08:13:37;144873.44;;;9.57;100.00
47530;BME280;33272;51.922;7.730;2023-02-03T08:16:05;144844.31;;;9.45;100.00
47530;BME280;33272;51.922;7.730;2023-02-03T08:18:34;144844.31;;;9.45;100.00
47530;BME280;33272;51.922;7.730;2023-02-03T08:21:01;144839.28;;;9.43;100.00
47530;BME280;33272;51.922;7.730;2023-02-03T08:23:29;144825.34;;;9.38;100.00
47530;BME280;33272;51.922;7.730;2023-02-03T08:25:56;144846.88;;;9.46;100.00
47530;BME280;33272;51.922;7.730;2023-02-03T08:28:23;144857.00;;;9.50;100.00
47530;BME280;33272;51.922;7.730;2023-02-03T08:30:50;144864.59;;;9.54;100.00
47530;BME280;33272;51.922;7.730;2023-02-03T08:33:17;144864.59;;;9.54;100.00
47530;BME280;33272;51.922;7.730;2023-02-03T08:35:48;144868.38;;;9.55;100.00
47530;BME280;33272;51.922;7.730;2023-02-03T08:38:15;144888.66;;;9.63;100.00
47530;BME280;33272;51.922;7.730;2023-02-03T08:40:43;144854.47;;;9.49;100.00
47530;BME280;33272;51.922;7.730;2023-02-03T08:43:09;144901.34;;;9.68;100.00
47530;BME280;33272;51.922;7.730;2023-02-03T08:45:38;144905.13;;;9.70;100.00
47530;BME280;33272;51.922;7.730;2023-02-03T08:48:05;144927.91;;;9.79;100.00
47530;BME280;33272;51.922;7.730;2023-02-03T08:50:32;144897.50;;;9.67;100.00
47530;BME280;33272;51.922;7.730;2023-02-03T08:53:01;144920.31;;;9.76;100.00
47530;BME280;33272;51.922;7.730;2023-02-03T08:55:28;144925.41;;;9.78;100.00
47530;BME280;33272;51.922;7.730;2023-02-03T08:57:55;144933.00;;;9.81;100.00
47530;BME280;33272;51.922;7.730;2023-02-03T09:00:22;144895.00;;;9.66;100.00
47530;BME280;33272;51.922;7.730;2023-02-03T09:02:49;144893.72;;;9.65;100.00
47530;BME280;33272;51.922;7.730;2023-02-03T09:05:16;144898.78;;;9.67;100.00
47530;BME280;33272;51.922;7.730;2023-02-03T09:07:43;144912.72;;;9.73;100.00
47530;BME280;33272;51.922;7.730;2023-02-03T09:10:12;144910.19;;;9.72;100.00
47530;BME280;33272;51.922;7.730;2023-02-03T09:12:39;144906.38;;;9.70;100.00
47530;BME280;33272;51.922;7.730;2023-02-03T09:15:07;144929.16;;;9.80;100.00
47530;BME280;33272;51.922;7.730;2023-02-03T09:17:34;144929.16;;;9.80;100.00
47530;BME280;33272;51.922;7.730;2023-02-03T09:20:01;144916.53;;;9.74;100.00
47530;BME280;33272;51.922;7.730;2023-02-03T09:22:28;144936.78;;;9.83;100.00
47530;BME280;33272;51.922;7.730;2023-02-03T09:24:55;144926.66;;;9.79;100.00
47530;BME280;33272;51.922;7.730;2023-02-03T09:27:23;144913.97;;;9.73;100.00
47530;BME280;33272;51.922;7.730;2023-02-03T09:29:50;144916.53;;;9.74;100.00
47530;BME280;33272;51.922;7.730;2023-02-03T09:32:17;144917.78;;;9.75;100.00
47530;BME280;33272;51.922;7.730;2023-02-03T09:34:44;144910.19;;;9.72;100.00
47530;BME280;33272;51.922;7.730;2023-02-03T09:37:11;144926.66;;;9.79;100.00
47530;BME280;33272;51.922;7.730;2023-02-03T09:39:38;144895.00;;;9.66;100.00
47530;BME280;33272;51.922;7.730;2023-02-03T09:42:44;144898.78;;;9.67;100.00
47530;BME280;33272;51.922;7.730;2023-02-03T09:45:21;144883.56;;;9.61;100.00
47530;BME280;33272;51.922;7.730;2023-02-03T09:47:53;144913.97;;;9.73;100.00
47530;BME280;33272;51.922;7.730;2023-02-03T09:50:25;144935.50;;;9.82;100.00
47530;BME280;33272;51.922;7.730;2023-02-03T09:52:55;144916.53;;;9.74;100.00
47530;BME280;33272;51.922;7.730;2023-02-03T09:55:28;144935.50;;;9.82;100.00
47530;BME280;33272;51.922;7.730;2023-02-03T09:58:04;144910.19;;;9.72;100.00
47530;BME280;33272;51.922;7.730;2023-02-03T10:00:35;144906.38;;;9.70;100.00
47530;BME280;33272;51.922;7.730;2023-02-03T10:03:09;144887.38;;;9.63;100.00
47530;BME280;33272;51.922;7.730;2023-02-03T10:06:08;144906.38;;;9.70;100.00
47530;BME280;33272;51.922;7.730;2023-02-03T10:08:50;144900.06;;;9.68;100.00
47530;BME280;33272;51.922;7.730;2023-02-03T10:11:32;144892.47;;;9.65;100.00
47530;BME280;33272;51.922;7.730;2023-02-03T10:14:21;144889.91;;;9.64;100.00
47530;BME280;33272;51.922;7.730;2023-02-03T10:17:10;144898.78;;;9.67;100.00
47530;BME280;33272;51.922;7.730;2023-02-03T10:19:45;144919.06;;;9.75;100.00
47530;BME280;33272;51.922;7.730;2023-02-03T10:22:20;144938.03;;;9.83;100.00
47530;BME280;33272;51.922;7.730;2023-02-03T10:24:52;144934.25;;;9.82;100.00
47530;BME280;33272;51.922;7.730;2023-02-03T10:27:24;144945.63;;;9.86;100.00
47530;BME280;33272;51.922;7.730;2023-02-03T10:29:58;144945.63;;;9.86;100.00
47530;BME280;33272;51.922;7.730;2023-02-03T10:32:27;144955.78;;;9.90;100.00
47530;BME280;33272;51.922;7.730;2023-02-03T10:34:55;144930.44;;;9.80;100.00
47530;BME280;33272;51.922;7.730;2023-02-03T10:37:27;144939.34;;;9.84;100.00
47530;BME280;33272;51.922;7.730;2023-02-03T10:39:57;144936.78;;;9.83;100.00
47530;BME280;33272;51.922;7.730;2023-02-03T10:42:25;144900.06;;;9.68;100.00
47530;BME280;33272;51.922;7.730;2023-02-03T10:45:15;144879.78;;;9.60;100.00
47530;BME280;33272;51.922;7.730;2023-02-03T10:47:46;144873.44;;;9.57;100.00
47530;BME280;33272;51.922;7.730;2023-02-03T10:50:18;144905.13;;;9.70;100.00
47530;BME280;33272;51.922;7.730;2023-02-03T10:52:46;144915.22;;;9.74;100.00
47530;BME280;33272;51.922;7.730;2023-02-03T10:55:30;144919.06;;;9.75;100.00
47530;BME280;33272;51.922;7.730;2023-02-03T10:57:57;144924.13;;;9.78;100.00
47530;BME280;33272;51.922;7.730;2023-02-03T11:00:33;144940.59;;;9.84;100.00
47530;BME280;33272;51.922;7.730;2023-02-03T11:03:05;144927.91;;;9.79;100.00
47530;BME280;33272;51.922;7.730;2023-02-03T11:05:33;144917.78;;;9.75;100.00
47530;BME280;33272;51.922;7.730;2023-02-03T11:08:01;144913.97;;;9.73;100.00
47530;BME280;33272;51.922;7.730;2023-02-03T11:10:32;144905.13;;;9.70;100.00
47530;BME280;33272;51.922;7.730;2023-02-03T11:13:20;144898.78;;;9.67;100.00
47530;BME280;33272;51.922;7.730;2023-02-03T11:15:57;144888.66;;;9.63;100.00
47530;BME280;33272;51.922;7.730;2023-02-03T11:18:43;144884.88;;;9.62;100.00
47530;BME280;33272;51.922;7.730;2023-02-03T11:21:16;144892.47;;;9.65;100.00
47530;BME280;33272;51.922;7.730;2023-02-03T11:24:00;144901.34;;;9.68;100.00
47530;BME280;33272;51.922;7.730;2023-02-03T11:26:32;144908.94;;;9.71;100.00
47530;BME280;33272;51.922;7.730;2023-02-03T11:29:03;144891.16;;;9.64;100.00
47530;BME280;33272;51.922;7.730;2023-02-03T11:31:34;144891.16;;;9.64;100.00
47530;BME280;33272;51.922;7.730;2023-02-03T11:34:05;144868.38;;;9.55;100.00
47530;BME280;33272;51.922;7.730;2023-02-03T11:36:34;144864.59;;;9.54;100.00
47530;BME280;33272;51.922;7.730;2023-02-03T11:39:15;144846.88;;;9.46;100.00
47530;BME280;33272;51.922;7.730;2023-02-03T11:41:43;144839.28;;;9.43;100.00
47530;BME280;33272;51.922;7.730;2023-02-03T11:44:14;144835.47;;;9.42;100.00
47530;BME280;33272;51.922;7.730;2023-02-03T11:46:44;144826.59;;;9.38;100.00
47530;BME280;33272;51.922;7.730;2023-02-03T11:52:49;144829.13;;;9.39;100.00
47530;BME280;33272;51.922;7.730;2023-02-03T11:55:32;144827.84;;;9.39;100.00
47530;BME280;33272;51.922;7.730;2023-02-03T11:58:28;144803.81;;;9.29;100.00
47530;BME280;33272;51.922;7.730;2023-02-03T12:01:06;144839.28;;;9.43;100.00
47530;BME280;33272;51.922;7.730;2023-02-03T12:04:08;144827.84;;;9.39;100.00
47530;BME280;33272;51.922;7.730;2023-02-03T12:07:03;144860.81;;;9.52;100.00
47530;BME280;33272;51.922;7.730;2023-02-03T12:09:46;144863.34;;;9.53;100.00
47530;BME280;33272;51.922;7.730;2023-02-03T12:12:33;144854.47;;;9.49;100.00
47530;BME280;33272;51.922;7.730;2023-02-03T12:15:26;144881.06;;;9.60;100.00
47530;BME280;33272;51.922;7.730;2023-02-03T12:18:23;144882.31;;;9.61;100.00
47530;BME280;33272;51.922;7.730;2023-02-03T12:21:07;144901.34;;;9.68;100.00
47530;BME280;33272;51.922;7.730;2023-02-03T12:23:48;144901.34;;;9.68;100.00
47530;BME280;33272;51.922;7.730;2023-02-03T12:26:23;144910.19;;;9.72;100.00
47530;BME280;33272;51.922;7.730;2023-02-03T12:28:59;144884.88;;;9.62;100.00
47530;BME280;33272;51.922;7.730;2023-02-03T12:31:34;144911.44;;;9.72;100.00
47530;BME280;33272;51.922;7.730;2023-02-03T12:34:12;144929.16;;;9.80;100.00
47530;BME280;33272;51.922;7.730;2023-02-03T12:36:46;144934.25;;;9.82;100.00
47530;BME280;33272;51.922;7.730;2023-02-03T12:39:24;144934.25;;;9.82;100.00
47530;BME280;33272;51.922;7.730;2023-02-03T12:41:59;144941.84;;;9.85;100.00
47530;BME280;33272;51.922;7.730;2023-02-03T12:44:32;144939.34;;;9.84;100.00
47530;BME280;33272;51.922;7.730;2023-02-03T12:47:06;144916.53;;;9.74;100.00
47530;BME280;33272;51.922;7.730;2023-02-03T12:49:43;144938.03;;;9.83;100.00
47530;BME280;33272;51.922;7.730;2023-02-03T12:52:20;144939.34;;;9.84;100.00
47530;BME280;33272;51.922;7.730;2023-02-03T12:54:56;144954.53;;;9.90;100.00
47530;BME280;33272;51.922;7.730;2023-02-03T12:57:28;144943.13;;;9.85;100.00
47530;BME280;33272;51.922;7.730;2023-02-03T13:00:09;144964.66;;;9.94;100.00
47530;BME280;33272;51.922;7.730;2023-02-03T13:02:55;144953.22;;;9.89;100.00
47530;BME280;33272;51.922;7.730;2023-02-03T13:05:31;144965.91;;;9.94;100.00
47530;BME280;33272;51.922;7.730;2023-02-03T13:08:12;144962.09;;;9.93;100.00
47530;BME280;33272;51.922;7.730;2023-02-03T13:10:47;144967.19;;;9.95;100.00
47530;BME280;33272;51.922;7.730;2023-02-03T13:13:25;144963.41;;;9.93;100.00
47530;BME280;33272;51.922;7.730;2023-02-03T13:15:56;144981.13;;;10.01;100.00
47530;BME280;33272;51.922;7.730;2023-02-03T13:18:28;144976.03;;;9.98;100.00